createdAt,value
2023-12-02T00:01:10.524Z,70.77
2023-12-02T00:03:37.157Z,70.81
2023-12-02T00:06:04.950Z,70.54
2023-12-02T00:08:31.536Z,70.74
2023-12-02T00:10:58.127Z,70.68
2023-12-02T00:13:25.361Z,70.53
2023-12-02T00:15:51.904Z,70.56
2023-12-02T00:18:18.695Z,70.43
2023-12-02T00:20:45.286Z,70.43
2023-12-02T00:23:11.861Z,70.32
2023-12-02T00:25:38.373Z,70.58
2023-12-02T00:28:05.152Z,70.73
2023-12-02T00:30:31.707Z,70.49
2023-12-02T00:32:58.310Z,70.65
2023-12-02T00:35:25.163Z,70.36
2023-12-02T00:37:51.663Z,70.39
2023-12-02T00:40:18.183Z,70.41
2023-12-02T00:42:44.681Z,70.26
2023-12-02T00:45:11.239Z,70.49
2023-12-02T00:47:37.827Z,70.49
2023-12-02T00:50:04.739Z,70.63
2023-12-02T00:52:31.231Z,70.62
2023-12-02T00:54:57.767Z,70.63
2023-12-02T00:57:24.327Z,70.50
2023-12-02T00:59:50.840Z,70.54
2023-12-02T01:02:17.302Z,70.61
2023-12-02T01:04:43.975Z,70.42
2023-12-02T01:07:10.560Z,70.77
2023-12-02T01:09:37.132Z,70.71
2023-12-02T01:12:03.932Z,70.51
2023-12-02T01:14:30.542Z,70.87
2023-12-02T01:16:57.091Z,70.52
2023-12-02T01:19:23.676Z,70.63
2023-12-02T01:21:50.740Z,70.77
2023-12-02T01:24:18.165Z,70.70
2023-12-02T01:26:44.801Z,70.79
2023-12-02T01:29:11.350Z,70.92
2023-12-02T01:31:37.850Z,70.83
2023-12-02T01:34:04.478Z,70.77
2023-12-02T01:36:31.404Z,70.90
2023-12-02T01:38:57.925Z,70.88
2023-12-02T01:41:24.927Z,71.01
2023-12-02T01:43:51.499Z,70.72
2023-12-02T01:46:18.037Z,70.61
2023-12-02T01:48:45.333Z,70.72
2023-12-02T01:51:12.109Z,70.67
2023-12-02T01:53:40.474Z,71.11
2023-12-02T01:56:07.913Z,71.17
2023-12-02T01:58:34.933Z,70.84
2023-12-02T02:01:05.006Z,70.93
2023-12-02T02:03:33.161Z,70.86
2023-12-02T02:06:00.744Z,70.57
2023-12-02T02:08:27.330Z,70.86
2023-12-02T02:10:58.656Z,70.91
2023-12-02T02:13:26.056Z,70.92
2023-12-02T02:15:52.940Z,70.67
2023-12-02T02:18:19.670Z,70.63
2023-12-02T02:20:53.848Z,70.68
2023-12-02T02:23:21.840Z,70.70
2023-12-02T02:25:53.175Z,70.72
2023-12-02T02:28:27.532Z,70.45
2023-12-02T02:30:55.128Z,70.74
2023-12-02T02:33:22.095Z,70.74
2023-12-02T02:35:49.325Z,70.62
2023-12-02T02:38:15.967Z,70.83
2023-12-02T02:40:42.418Z,70.40
2023-12-02T02:43:08.993Z,71.04
2023-12-02T02:45:35.573Z,70.58
2023-12-02T02:48:02.204Z,70.56
2023-12-02T02:50:29.026Z,70.75
2023-12-02T02:52:55.494Z,70.64
2023-12-02T02:55:22.264Z,70.78
2023-12-02T02:57:48.738Z,70.49
2023-12-02T03:00:15.848Z,70.71
2023-12-02T03:02:42.412Z,70.61
2023-12-02T03:05:08.963Z,70.63
2023-12-02T03:07:35.571Z,70.69
2023-12-02T03:10:02.141Z,70.66
2023-12-02T03:12:29.413Z,70.72
2023-12-02T03:14:56.321Z,70.84
2023-12-02T03:17:22.861Z,70.97
2023-12-02T03:19:50.046Z,70.75
2023-12-02T03:22:16.874Z,70.93
2023-12-02T03:24:43.368Z,70.67
2023-12-02T03:27:10.164Z,70.56
2023-12-02T03:29:36.624Z,70.66
2023-12-02T03:32:03.297Z,70.64
2023-12-02T03:34:29.889Z,70.83
2023-12-02T03:36:56.424Z,70.49
2023-12-02T03:39:22.915Z,70.66
2023-12-02T03:41:50.319Z,70.47
2023-12-02T03:44:16.885Z,70.50
2023-12-02T03:46:44.323Z,70.74
2023-12-02T03:49:10.910Z,70.44
2023-12-02T03:51:37.476Z,70.54
2023-12-02T03:54:04.039Z,70.61
2023-12-02T03:56:30.587Z,70.63
2023-12-02T03:58:57.192Z,70.73
2023-12-02T04:01:23.723Z,70.76
2023-12-02T04:03:50.196Z,70.57
2023-12-02T04:06:16.758Z,71.09
2023-12-02T04:08:43.396Z,70.63
2023-12-02T04:11:09.942Z,70.41
2023-12-02T04:13:36.975Z,70.59
2023-12-02T04:16:03.772Z,70.56
2023-12-02T04:18:30.521Z,70.56
2023-12-02T04:20:57.074Z,70.44
2023-12-02T04:23:23.694Z,70.53
2023-12-02T04:25:50.248Z,70.32
2023-12-02T04:28:18.256Z,70.52
2023-12-02T04:30:44.866Z,70.37
2023-12-02T04:33:11.541Z,70.34
2023-12-02T04:35:38.181Z,70.33
2023-12-02T04:38:07.777Z,70.30
2023-12-02T04:40:34.818Z,70.54
2023-12-02T04:43:01.610Z,70.50
2023-12-02T04:45:30.999Z,70.37
2023-12-02T04:47:59.270Z,70.23
2023-12-02T04:50:25.939Z,70.21
2023-12-02T04:52:52.519Z,70.20
2023-12-02T04:55:19.040Z,70.30
2023-12-02T04:57:46.728Z,70.35
2023-12-02T05:00:18.059Z,70.46
2023-12-02T05:02:45.394Z,70.31
2023-12-02T05:05:12.115Z,70.12
2023-12-02T05:07:38.638Z,70.40
2023-12-02T05:10:08.522Z,70.24
2023-12-02T05:12:35.118Z,69.99
2023-12-02T05:15:01.884Z,70.25
2023-12-02T05:17:28.968Z,70.08
2023-12-02T05:19:55.849Z,70.37
2023-12-02T05:22:22.346Z,70.20
2023-12-02T05:24:49.206Z,70.10
2023-12-02T05:27:16.189Z,69.94
2023-12-02T05:29:42.688Z,70.10
2023-12-02T05:32:09.221Z,70.34
2023-12-02T05:34:35.860Z,70.25
2023-12-02T05:37:02.450Z,69.98
2023-12-02T05:39:29.030Z,70.13
2023-12-02T05:41:55.598Z,69.92
2023-12-02T05:44:22.098Z,69.88
2023-12-02T05:46:48.593Z,69.64
2023-12-02T05:49:15.495Z,69.90
2023-12-02T05:51:42.175Z,70.11
2023-12-02T05:54:09.780Z,69.83
2023-12-02T05:56:36.437Z,69.48
2023-12-02T05:59:03.326Z,69.87
2023-12-02T06:01:30.912Z,69.73
2023-12-02T06:03:57.739Z,69.70
2023-12-02T06:06:24.453Z,69.83
2023-12-02T06:08:51.042Z,70.03
2023-12-02T06:11:17.517Z,69.85
2023-12-02T06:13:44.285Z,69.79
2023-12-02T06:16:11.466Z,69.72
2023-12-02T06:18:38.028Z,69.69
2023-12-02T06:21:04.857Z,69.73
2023-12-02T06:23:31.374Z,69.58
2023-12-02T06:25:57.970Z,69.70
2023-12-02T06:28:24.627Z,69.66
2023-12-02T06:30:51.198Z,69.74
2023-12-02T06:33:17.716Z,69.74
2023-12-02T06:35:44.557Z,69.76
2023-12-02T06:38:11.499Z,69.92
2023-12-02T06:40:38.032Z,69.87
2023-12-02T06:43:04.596Z,69.82
2023-12-02T06:45:31.252Z,69.88
2023-12-02T06:47:58.376Z,69.80
2023-12-02T06:50:25.069Z,69.69
2023-12-02T06:52:52.744Z,69.56
2023-12-02T06:57:48.625Z,69.53
2023-12-02T07:00:15.855Z,69.54
2023-12-02T07:02:43.298Z,69.66
2023-12-02T07:05:10.003Z,69.62
2023-12-02T07:07:37.069Z,69.46
2023-12-02T07:10:03.988Z,69.89
2023-12-02T07:12:30.507Z,69.65
2023-12-02T07:14:57.130Z,69.76
2023-12-02T07:17:24.087Z,69.81
2023-12-02T07:19:50.617Z,69.75
2023-12-02T07:22:17.279Z,69.47
2023-12-02T07:24:43.816Z,69.79
2023-12-02T07:27:10.475Z,69.87
2023-12-02T07:32:08.225Z,69.95
2023-12-02T07:34:34.831Z,69.81
2023-12-02T07:37:01.432Z,69.91
2023-12-02T07:39:27.891Z,70.14
2023-12-02T07:41:54.509Z,70.18
2023-12-02T07:44:20.983Z,70.31
2023-12-02T07:46:47.561Z,70.21
2023-12-02T07:49:14.148Z,69.95
2023-12-02T07:51:40.678Z,69.94
2023-12-02T07:54:07.579Z,70.11
2023-12-02T07:56:34.113Z,69.95
2023-12-02T07:59:01.139Z,69.77
2023-12-02T08:01:27.916Z,69.76
2023-12-02T08:03:54.483Z,69.95
2023-12-02T08:06:21.028Z,69.49
2023-12-02T08:08:48.465Z,69.84
2023-12-02T08:11:16.961Z,70.02
2023-12-02T08:13:43.532Z,69.87
2023-12-02T08:16:10.539Z,69.93
2023-12-02T08:18:37.006Z,70.18
2023-12-02T08:21:03.603Z,69.90
2023-12-02T08:23:30.109Z,69.50
2023-12-02T08:25:57.220Z,69.57
2023-12-02T08:28:23.763Z,69.67
2023-12-02T08:30:50.276Z,69.82
2023-12-02T08:33:17.481Z,69.88
2023-12-02T08:35:43.961Z,69.70
2023-12-02T08:38:10.513Z,69.46
2023-12-02T08:40:37.052Z,69.58
2023-12-02T08:43:03.539Z,69.68
2023-12-02T08:45:30.067Z,69.53
2023-12-02T08:47:56.698Z,69.87
2023-12-02T08:50:23.299Z,69.45
2023-12-02T08:52:49.888Z,69.54
2023-12-02T08:55:16.615Z,69.60
2023-12-02T08:57:43.122Z,69.44
2023-12-02T09:00:10.955Z,69.49
2023-12-02T09:02:37.530Z,69.52
2023-12-02T09:05:06.371Z,69.54
2023-12-02T09:07:33.098Z,69.44
2023-12-02T09:09:59.658Z,69.33
2023-12-02T09:12:26.205Z,69.47
2023-12-02T09:15:06.947Z,69.29
2023-12-02T09:18:13.178Z,69.38
2023-12-02T09:20:50.426Z,69.50
2023-12-02T09:23:18.959Z,69.74
2023-12-02T09:25:47.272Z,69.63
2023-12-02T09:28:16.887Z,69.34
2023-12-02T09:31:10.035Z,69.73
2023-12-02T09:33:38.295Z,69.37
2023-12-02T09:36:07.134Z,69.48
2023-12-02T09:38:34.483Z,69.32
2023-12-02T09:41:32.782Z,69.50
2023-12-02T09:44:42.602Z,69.34
2023-12-02T09:47:21.807Z,69.41
2023-12-02T09:50:12.703Z,69.11
2023-12-02T09:53:10.167Z,69.29
2023-12-02T09:55:39.825Z,68.92
2023-12-02T09:58:23.007Z,69.17
2023-12-02T10:01:05.697Z,69.03
2023-12-02T10:03:47.295Z,68.94
2023-12-02T10:06:45.800Z,69.04
2023-12-02T10:09:30.914Z,69.86
2023-12-02T10:12:12.505Z,69.82
2023-12-02T10:14:42.338Z,69.88
2023-12-02T10:17:12.068Z,70.36
2023-12-02T10:19:52.739Z,70.77
2023-12-02T10:22:23.751Z,71.19
2023-12-02T10:25:30.638Z,71.57
2023-12-02T10:28:06.421Z,71.51
2023-12-02T10:30:38.053Z,71.63
2023-12-02T10:33:16.754Z,71.66
2023-12-02T10:35:44.966Z,71.62
2023-12-02T10:38:28.195Z,71.81
2023-12-02T10:41:27.185Z,71.95
2023-12-02T10:43:57.297Z,72.13
2023-12-02T10:46:24.387Z,72.25
2023-12-02T10:48:52.280Z,72.47
2023-12-02T10:51:20.539Z,72.72
2023-12-02T10:53:47.837Z,72.81
2023-12-02T10:56:22.557Z,72.74
2023-12-02T10:58:53.287Z,72.49
2023-12-02T11:01:27.978Z,72.66
2023-12-02T11:04:14.770Z,72.74
2023-12-02T11:06:46.535Z,72.59
2023-12-02T11:09:24.087Z,72.82
2023-12-02T11:12:10.845Z,72.70
2023-12-02T11:14:41.603Z,72.88
2023-12-02T11:17:08.151Z,72.49
2023-12-02T11:19:53.113Z,73.20
2023-12-02T11:22:45.645Z,73.14
2023-12-02T11:25:26.194Z,72.92
2023-12-02T11:28:11.280Z,73.17
2023-12-02T11:30:55.537Z,73.16
2023-12-02T11:33:55.879Z,72.99
2023-12-02T11:36:30.733Z,72.77
2023-12-02T11:39:15.970Z,72.90
2023-12-02T11:41:54.676Z,73.01
2023-12-02T11:44:59.694Z,72.85
2023-12-02T11:47:47.441Z,73.11
2023-12-02T11:50:32.655Z,73.13
2023-12-02T11:53:31.782Z,72.97
2023-12-02T11:56:13.060Z,73.11
2023-12-02T11:59:10.083Z,72.86
2023-12-02T12:01:49.601Z,72.71
2023-12-02T12:04:31.309Z,72.86
2023-12-02T12:07:13.439Z,72.97
2023-12-02T12:09:59.860Z,72.89
2023-12-02T12:12:28.773Z,72.92
2023-12-02T12:14:56.504Z,73.65
2023-12-02T12:17:24.176Z,73.58
2023-12-02T12:19:51.434Z,72.98
2023-12-02T12:22:18.137Z,72.74
2023-12-02T12:24:44.638Z,72.89
2023-12-02T12:27:12.100Z,72.82
2023-12-02T12:29:58.965Z,72.71
2023-12-02T12:32:25.774Z,72.37
2023-12-02T12:34:55.561Z,72.83
2023-12-02T12:37:22.216Z,73.19
2023-12-02T12:39:51.910Z,73.09
2023-12-02T12:42:19.339Z,73.14
2023-12-02T12:44:45.871Z,72.84
2023-12-02T12:47:13.653Z,72.31
2023-12-02T12:49:42.651Z,72.72
2023-12-02T12:52:10.891Z,72.52
2023-12-02T12:54:47.228Z,72.39
2023-12-02T12:57:26.904Z,72.46
2023-12-02T13:00:00.243Z,72.14
2023-12-02T13:02:54.382Z,73.42
2023-12-02T13:05:23.298Z,74.52
2023-12-02T13:07:59.218Z,75.53
2023-12-02T13:10:28.084Z,75.93
2023-12-02T13:12:58.445Z,76.38
2023-12-02T13:15:25.952Z,76.93
2023-12-02T13:17:52.772Z,77.19
2023-12-02T13:20:20.714Z,77.58
2023-12-02T13:22:48.640Z,77.81
2023-12-02T13:25:20.710Z,77.61
2023-12-02T13:27:58.345Z,78.74
2023-12-02T13:30:25.767Z,78.24
2023-12-02T13:32:55.597Z,78.01
2023-12-02T13:35:31.490Z,77.57
2023-12-02T13:38:16.252Z,77.63
2023-12-02T13:40:52.278Z,77.68
2023-12-02T13:43:24.808Z,78.14
2023-12-02T13:45:59.881Z,77.54
2023-12-02T13:48:46.506Z,78.50
2023-12-02T13:51:29.732Z,78.73
2023-12-02T13:54:05.105Z,79.08
2023-12-02T13:56:47.912Z,79.26
2023-12-02T13:59:46.439Z,78.62
2023-12-02T14:02:36.772Z,78.32
2023-12-02T14:05:08.183Z,77.95
2023-12-02T14:07:44.987Z,77.38
2023-12-02T14:10:14.548Z,77.12
2023-12-02T14:12:52.855Z,77.04
2023-12-02T14:15:28.446Z,76.74
2023-12-02T14:18:46.470Z,76.62
2023-12-02T14:21:41.465Z,76.65
2023-12-02T14:24:31.102Z,76.24
2023-12-02T14:27:28.388Z,75.60
2023-12-02T14:30:17.674Z,74.78
2023-12-02T14:33:02.940Z,74.34
2023-12-02T14:35:38.598Z,73.95
2023-12-02T14:38:14.154Z,73.74
2023-12-02T14:40:46.747Z,73.31
2023-12-02T14:43:39.911Z,73.63
2023-12-02T14:46:06.634Z,72.86
2023-12-02T14:48:34.174Z,72.80
2023-12-02T14:51:03.566Z,72.75
2023-12-02T14:53:37.454Z,72.62
2023-12-02T14:56:42.354Z,72.18
2023-12-02T14:59:11.540Z,72.19
2023-12-02T15:01:41.273Z,71.73
2023-12-02T15:04:08.988Z,72.27
2023-12-02T15:06:40.422Z,72.21
2023-12-02T15:09:07.404Z,72.52
2023-12-02T15:11:37.449Z,71.46
2023-12-02T15:14:04.540Z,70.41
2023-12-02T15:16:34.031Z,71.17
2023-12-02T15:19:11.182Z,71.49
2023-12-02T15:22:12.022Z,71.37
2023-12-02T15:24:38.578Z,71.97
2023-12-02T15:27:05.438Z,72.11
2023-12-02T15:29:32.056Z,71.56
2023-12-02T15:31:58.521Z,72.44
2023-12-02T15:34:25.668Z,72.07
2023-12-02T15:36:52.228Z,72.28
2023-12-02T15:39:18.948Z,72.12
2023-12-02T15:41:46.361Z,72.73
2023-12-02T15:44:12.983Z,72.80
2023-12-02T15:46:40.459Z,72.83
2023-12-02T15:49:10.913Z,72.33
2023-12-02T15:51:38.115Z,73.44
2023-12-02T15:54:05.657Z,73.70
2023-12-02T15:56:33.334Z,73.55
2023-12-02T15:59:01.060Z,74.36
2023-12-02T16:01:27.904Z,74.47
2023-12-02T16:03:56.281Z,74.82
2023-12-02T16:06:25.748Z,74.59
2023-12-02T16:08:53.281Z,75.03
2023-12-02T16:11:20.079Z,75.58
2023-12-02T16:13:46.663Z,75.80
2023-12-02T16:16:14.836Z,76.63
2023-12-02T16:18:43.142Z,77.13
2023-12-02T16:21:13.714Z,77.79
2023-12-02T16:23:44.145Z,78.13
2023-12-02T16:26:20.763Z,78.37
2023-12-02T16:28:47.732Z,79.11
2023-12-02T16:31:14.462Z,78.44
2023-12-02T16:33:46.210Z,78.50
2023-12-02T16:36:15.828Z,78.63
2023-12-02T16:38:42.603Z,77.76
2023-12-02T16:41:09.099Z,77.66
2023-12-02T16:43:35.623Z,77.98
2023-12-02T16:46:05.764Z,77.80
2023-12-02T16:48:35.087Z,78.05
2023-12-02T16:51:02.907Z,76.95
2023-12-02T16:53:29.486Z,77.01
2023-12-02T16:56:05.015Z,76.74
2023-12-02T16:58:38.214Z,75.66
2023-12-02T17:01:08.017Z,76.65
2023-12-02T17:03:36.010Z,76.13
2023-12-02T17:06:18.438Z,75.99
2023-12-02T17:08:46.046Z,75.48
2023-12-02T17:11:20.498Z,75.18
2023-12-02T17:13:59.599Z,75.83
2023-12-02T17:16:32.875Z,75.05
2023-12-02T17:19:00.592Z,75.55
2023-12-02T17:21:43.657Z,74.45
2023-12-02T17:24:16.640Z,74.53
2023-12-02T17:26:43.370Z,75.14
2023-12-02T17:29:18.616Z,74.50
2023-12-02T17:31:45.087Z,73.70
2023-12-02T17:34:11.610Z,74.56
2023-12-02T17:36:38.484Z,74.51
2023-12-02T17:39:05.297Z,74.45
2023-12-02T17:41:31.851Z,74.28
2023-12-02T17:43:58.569Z,74.60
2023-12-02T17:46:27.998Z,74.37
2023-12-02T17:48:54.571Z,74.89
2023-12-02T17:51:21.566Z,74.46
2023-12-02T17:53:48.222Z,74.53
2023-12-02T17:56:14.814Z,74.38
2023-12-02T17:58:41.296Z,73.93
2023-12-02T18:01:08.347Z,74.74
2023-12-02T18:03:34.932Z,73.80
2023-12-02T18:06:01.597Z,73.54
2023-12-02T18:08:28.211Z,73.78
2023-12-02T18:10:54.703Z,73.05
2023-12-02T18:13:21.217Z,73.53
2023-12-02T18:15:48.231Z,72.39
2023-12-02T18:18:15.546Z,72.79
2023-12-02T18:20:47.688Z,72.63
2023-12-02T18:23:18.975Z,72.32
2023-12-02T18:25:45.477Z,73.02
2023-12-02T18:28:11.993Z,72.65
2023-12-02T18:30:38.790Z,73.08
2023-12-02T18:33:06.562Z,72.64
2023-12-02T18:35:33.219Z,73.27
2023-12-02T18:38:00.752Z,72.86
2023-12-02T18:40:29.677Z,73.13
2023-12-02T18:42:56.369Z,73.20
2023-12-02T18:45:23.068Z,73.19
2023-12-02T18:47:49.637Z,73.34
2023-12-02T18:50:16.505Z,73.58
2023-12-02T18:52:43.472Z,73.10
2023-12-02T18:55:10.008Z,73.53
2023-12-02T18:57:36.658Z,72.59
2023-12-02T19:00:06.832Z,72.33
2023-12-02T19:02:34.598Z,72.44
2023-12-02T19:05:02.238Z,72.31
2023-12-02T19:07:28.779Z,72.14
2023-12-02T19:09:55.275Z,71.68
2023-12-02T19:12:21.906Z,72.06
2023-12-02T19:14:48.867Z,71.59
2023-12-02T19:17:15.431Z,71.72
2023-12-02T19:19:41.979Z,71.92
2023-12-02T19:22:09.062Z,71.80
2023-12-02T19:24:35.677Z,71.63
2023-12-02T19:27:02.351Z,71.69
2023-12-02T19:29:28.915Z,70.77
2023-12-02T19:31:55.295Z,70.87
2023-12-02T19:34:21.987Z,70.33
2023-12-02T19:36:49.094Z,70.43
2023-12-02T19:39:16.442Z,70.49
2023-12-02T19:41:46.077Z,70.44
2023-12-02T19:44:13.772Z,70.53
2023-12-02T19:46:41.448Z,69.60
2023-12-02T19:49:08.170Z,68.84
2023-12-02T19:51:34.822Z,68.68
2023-12-02T19:54:02.238Z,69.36
2023-12-02T19:56:30.025Z,68.88
2023-12-02T19:58:56.608Z,69.58
2023-12-02T20:01:24.236Z,69.38
2023-12-02T20:03:50.781Z,68.45
2023-12-02T20:06:17.416Z,69.11
2023-12-02T20:08:43.941Z,69.00
2023-12-02T20:11:10.480Z,68.86
2023-12-02T20:13:36.966Z,68.49
2023-12-02T20:16:04.390Z,68.74
2023-12-02T20:18:31.367Z,69.38
2023-12-02T20:20:57.897Z,68.29
2023-12-02T20:23:24.514Z,68.17
2023-12-02T20:25:51.320Z,68.60
2023-12-02T20:28:17.868Z,68.59
2023-12-02T20:30:44.527Z,68.41
2023-12-02T20:33:11.178Z,68.25
2023-12-02T20:35:37.977Z,67.98
2023-12-02T20:38:04.508Z,67.84
2023-12-02T20:40:31.086Z,67.35
2023-12-02T20:42:57.598Z,67.97
2023-12-02T20:45:24.195Z,67.56
2023-12-02T20:47:50.766Z,67.44
2023-12-02T20:50:17.241Z,67.50
2023-12-02T20:52:43.716Z,67.21
2023-12-02T20:55:10.308Z,67.90
2023-12-02T20:57:37.587Z,67.35
2023-12-02T21:00:04.636Z,67.45
2023-12-02T21:02:31.283Z,67.10
2023-12-02T21:04:57.891Z,67.02
2023-12-02T21:07:24.409Z,67.11
2023-12-02T21:09:51.989Z,67.34
2023-12-02T21:12:18.510Z,66.73
2023-12-02T21:14:45.040Z,67.24
2023-12-02T21:17:11.537Z,66.91
2023-12-02T21:19:38.525Z,66.98
2023-12-02T21:22:05.102Z,66.87
2023-12-02T21:24:31.717Z,67.45
2023-12-02T21:26:58.285Z,67.15
2023-12-02T21:29:25.061Z,67.90
2023-12-02T21:31:51.628Z,67.46
2023-12-02T21:34:20.268Z,67.48
2023-12-02T21:36:48.998Z,68.35
2023-12-02T21:39:21.142Z,68.56
2023-12-02T21:41:47.656Z,68.44
2023-12-02T21:44:17.833Z,68.24
2023-12-02T21:46:44.854Z,68.39
2023-12-02T21:49:20.474Z,68.18
2023-12-02T21:51:48.324Z,67.77
2023-12-02T21:54:19.628Z,68.50
2023-12-02T21:56:48.098Z,67.31
2023-12-02T21:59:17.219Z,67.69
2023-12-02T22:01:46.122Z,68.11
2023-12-02T22:04:42.581Z,68.26
2023-12-02T22:07:21.663Z,67.76
2023-12-02T22:09:48.362Z,68.31
2023-12-02T22:12:33.432Z,67.81
2023-12-02T22:15:04.072Z,68.16
2023-12-02T22:17:32.977Z,68.26
2023-12-02T22:19:59.828Z,67.92
2023-12-02T22:22:47.666Z,67.77
2023-12-02T22:25:18.045Z,67.76
2023-12-02T22:27:44.995Z,67.18
2023-12-02T22:30:23.778Z,67.57
2023-12-02T22:32:57.396Z,67.23
2023-12-02T22:35:27.230Z,67.01
2023-12-02T22:37:55.247Z,66.63
2023-12-02T22:40:33.214Z,67.55
2023-12-02T22:43:04.166Z,67.26
2023-12-02T22:45:30.893Z,67.54
2023-12-02T22:47:59.017Z,67.15
2023-12-02T22:50:26.153Z,67.65
2023-12-02T22:52:53.190Z,67.83
2023-12-02T22:55:51.489Z,67.15
2023-12-02T22:58:19.171Z,67.10
2023-12-02T23:00:48.962Z,67.58
2023-12-02T23:03:16.860Z,67.33
2023-12-02T23:05:44.322Z,67.39
2023-12-02T23:08:20.376Z,67.76
2023-12-02T23:10:47.185Z,67.76
2023-12-02T23:13:48.031Z,67.68
2023-12-02T23:16:30.323Z,67.90
2023-12-02T23:18:56.944Z,67.69
2023-12-02T23:21:23.637Z,68.33
2023-12-02T23:23:50.894Z,67.79
2023-12-02T23:26:17.420Z,67.44
2023-12-02T23:28:43.904Z,67.24
2023-12-02T23:31:10.294Z,67.34
2023-12-02T23:33:37.516Z,67.89
2023-12-02T23:36:04.568Z,67.42
2023-12-02T23:38:32.317Z,68.15
2023-12-02T23:40:58.870Z,67.38
2023-12-02T23:43:36.682Z,67.89
2023-12-02T23:46:04.236Z,68.05
2023-12-02T23:48:30.852Z,67.73
2023-12-02T23:50:57.514Z,68.27
2023-12-02T23:53:24.794Z,68.07
2023-12-02T23:55:51.924Z,67.47
2023-12-02T23:58:18.749Z,67.46
